sensor_id;sensor_type;location;lat;lon;timestamp;pressure;altitude;pressure_sealevel;temperature;humidity
21236;BME280;10775;42.678;26.324;2023-03-25T00:00:08;98488.44;;;10.16;100.00
21236;BME280;10775;42.678;26.324;2023-03-25T00:02:43;98474.69;;;10.08;100.00
21236;BME280;10775;42.678;26.324;2023-03-25T00:05:10;98472.34;;;9.94;100.00
21236;BME280;10775;42.678;26.324;2023-03-25T00:07:37;98470.56;;;9.96;100.00
21236;BME280;10775;42.678;26.324;2023-03-25T00:10:03;98470.28;;;9.68;100.00
21236;BME280;10775;42.678;26.324;2023-03-25T00:12:28;98472.28;;;9.53;100.00
21236;BME280;10775;42.678;26.324;2023-03-25T00:14:55;98461.59;;;9.66;100.00
21236;BME280;10775;42.678;26.324;2023-03-25T00:17:23;98463.16;;;9.76;100.00
21236;BME280;10775;42.678;26.324;2023-03-25T00:19:50;98454.38;;;9.78;100.00
21236;BME280;10775;42.678;26.324;2023-03-25T00:22:19;98455.16;;;9.84;100.00
21236;BME280;10775;42.678;26.324;2023-03-25T00:24:45;98451.31;;;9.60;100.00
21236;BME280;10775;42.678;26.324;2023-03-25T00:27:10;98456.88;;;9.41;100.00
21236;BME280;10775;42.678;26.324;2023-03-25T00:29:38;98454.28;;;9.40;100.00
21236;BME280;10775;42.678;26.324;2023-03-25T00:32:04;98440.09;;;9.53;100.00
21236;BME280;10775;42.678;26.324;2023-03-25T00:34:30;98432.13;;;9.61;100.00
21236;BME280;10775;42.678;26.324;2023-03-25T00:36:55;98438.81;;;9.74;100.00
21236;BME280;10775;42.678;26.324;2023-03-25T00:39:20;98441.47;;;9.72;100.00
21236;BME280;10775;42.678;26.324;2023-03-25T00:41:46;98428.75;;;9.55;100.00
21236;BME280;10775;42.678;26.324;2023-03-25T00:44:12;98426.13;;;9.55;100.00
21236;BME280;10775;42.678;26.324;2023-03-25T00:46:38;98424.19;;;9.67;100.00
21236;BME280;10775;42.678;26.324;2023-03-25T00:49:04;98424.97;;;9.72;100.00
21236;BME280;10775;42.678;26.324;2023-03-25T00:51:30;98429.19;;;9.76;100.00
21236;BME280;10775;42.678;26.324;2023-03-25T00:53:58;98414.19;;;9.87;100.00
21236;BME280;10775;42.678;26.324;2023-03-25T00:56:28;98407.16;;;9.89;100.00
21236;BME280;10775;42.678;26.324;2023-03-25T00:58:55;98403.94;;;9.78;100.00
21236;BME280;10775;42.678;26.324;2023-03-25T01:01:25;98402.16;;;9.80;100.00
21236;BME280;10775;42.678;26.324;2023-03-25T01:03:52;98400.41;;;9.79;100.00
21236;BME280;10775;42.678;26.324;2023-03-25T01:06:32;98402.91;;;9.85;100.00
21236;BME280;10775;42.678;26.324;2023-03-25T01:09:00;98390.84;;;9.79;100.00
21236;BME280;10775;42.678;26.324;2023-03-25T01:11:28;98389.13;;;9.78;100.00
21236;BME280;10775;42.678;26.324;2023-03-25T01:13:55;98377.00;;;9.76;100.00
21236;BME280;10775;42.678;26.324;2023-03-25T01:16:21;98376.13;;;9.77;100.00
21236;BME280;10775;42.678;26.324;2023-03-25T01:18:47;98373.63;;;9.71;100.00
21236;BME280;10775;42.678;26.324;2023-03-25T01:21:13;98365.09;;;9.63;100.00
21236;BME280;10775;42.678;26.324;2023-03-25T01:23:39;98364.19;;;9.64;100.00
21236;BME280;10775;42.678;26.324;2023-03-25T01:26:04;98356.66;;;9.51;100.00
21236;BME280;10775;42.678;26.324;2023-03-25T01:28:30;98367.97;;;9.50;100.00
21236;BME280;10775;42.678;26.324;2023-03-25T01:31:03;98365.16;;;9.60;100.00
21236;BME280;10775;42.678;26.324;2023-03-25T01:33:29;98358.34;;;9.54;100.00
21236;BME280;10775;42.678;26.324;2023-03-25T01:35:55;98361.59;;;9.64;100.00
21236;BME280;10775;42.678;26.324;2023-03-25T01:38:20;98354.56;;;9.67;100.00
21236;BME280;10775;42.678;26.324;2023-03-25T01:40:46;98359.81;;;9.66;100.00
21236;BME280;10775;42.678;26.324;2023-03-25T01:43:11;98347.72;;;9.62;100.00
21236;BME280;10775;42.678;26.324;2023-03-25T01:45:40;98351.34;;;9.54;100.00
21236;BME280;10775;42.678;26.324;2023-03-25T01:48:09;98353.59;;;9.31;100.00
21236;BME280;10775;42.678;26.324;2023-03-25T01:50:42;98340.53;;;9.31;100.00
21236;BME280;10775;42.678;26.324;2023-03-25T01:53:09;98337.09;;;9.29;100.00
21236;BME280;10775;42.678;26.324;2023-03-25T01:55:35;98330.88;;;9.34;100.00
21236;BME280;10775;42.678;26.324;2023-03-25T01:58:05;98336.88;;;9.38;100.00
21236;BME280;10775;42.678;26.324;2023-03-25T02:00:36;98330.91;;;9.33;100.00
21236;BME280;10775;42.678;26.324;2023-03-25T02:03:02;98336.25;;;9.28;100.00
21236;BME280;10775;42.678;26.324;2023-03-25T02:06:01;98338.09;;;9.22;100.00
21236;BME280;10775;42.678;26.324;2023-03-25T02:08:36;98342.31;;;9.29;100.00
21236;BME280;10775;42.678;26.324;2023-03-25T02:11:04;98336.63;;;9.08;100.00
21236;BME280;10775;42.678;26.324;2023-03-25T02:13:30;98334.19;;;8.99;100.00
21236;BME280;10775;42.678;26.324;2023-03-25T02:16:24;98329.44;;;9.21;100.00
21236;BME280;10775;42.678;26.324;2023-03-25T02:24:42;98332.91;;;9.20;100.00
21236;BME280;10775;42.678;26.324;2023-03-25T02:38:50;98314.03;;;9.07;100.00
21236;BME280;10775;42.678;26.324;2023-03-25T02:43:56;98302.34;;;9.27;100.00
21236;BME280;10775;42.678;26.324;2023-03-25T02:46:24;98302.22;;;9.33;100.00
21236;BME280;10775;42.678;26.324;2023-03-25T02:48:55;98306.72;;;9.25;100.00
21236;BME280;10775;42.678;26.324;2023-03-25T02:51:29;98298.97;;;9.23;100.00
21236;BME280;10775;42.678;26.324;2023-03-25T02:53:59;98296.50;;;9.16;100.00
21236;BME280;10775;42.678;26.324;2023-03-25T02:56:27;98293.00;;;9.17;100.00
21236;BME280;10775;42.678;26.324;2023-03-25T02:58:55;98287.00;;;9.13;100.00
21236;BME280;10775;42.678;26.324;2023-03-25T03:01:21;98289.53;;;9.16;100.00
21236;BME280;10775;42.678;26.324;2023-03-25T03:03:54;98282.56;;;9.17;100.00
21236;BME280;10775;42.678;26.324;2023-03-25T03:06:22;98291.16;;;9.22;100.00
21236;BME280;10775;42.678;26.324;2023-03-25T03:16:22;98287.63;;;8.79;100.00
21236;BME280;10775;42.678;26.324;2023-03-25T03:19:37;98285.13;;;8.75;100.00
21236;BME280;10775;42.678;26.324;2023-03-25T03:22:05;98284.03;;;8.86;100.00
21236;BME280;10775;42.678;26.324;2023-03-25T03:24:46;98283.03;;;8.93;100.00
21236;BME280;10775;42.678;26.324;2023-03-25T03:27:29;98283.19;;;8.84;100.00
21236;BME280;10775;42.678;26.324;2023-03-25T03:35:38;98284.66;;;8.99;100.00
21236;BME280;10775;42.678;26.324;2023-03-25T03:38:09;98293.25;;;9.04;100.00
21236;BME280;10775;42.678;26.324;2023-03-25T03:40:39;98293.22;;;9.06;100.00
21236;BME280;10775;42.678;26.324;2023-03-25T03:43:15;98289.78;;;9.04;100.00
21236;BME280;10775;42.678;26.324;2023-03-25T03:45:48;98279.34;;;9.05;100.00
21236;BME280;10775;42.678;26.324;2023-03-25T03:48:23;98279.34;;;9.05;100.00
21236;BME280;10775;42.678;26.324;2023-03-25T03:50:56;98282.75;;;9.07;100.00
21236;BME280;10775;42.678;26.324;2023-03-25T03:53:51;98283.88;;;8.94;100.00
21236;BME280;10775;42.678;26.324;2023-03-25T03:56:23;98281.47;;;8.85;100.00
21236;BME280;10775;42.678;26.324;2023-03-25T03:58:52;98276.16;;;8.89;100.00
21236;BME280;10775;42.678;26.324;2023-03-25T04:01:31;98275.19;;;8.95;100.00
21236;BME280;10775;42.678;26.324;2023-03-25T04:06:33;98281.28;;;8.94;100.00
21236;BME280;10775;42.678;26.324;2023-03-25T04:09:23;98277.84;;;8.92;100.00
21236;BME280;10775;42.678;26.324;2023-03-25T04:11:55;98274.44;;;8.87;100.00
21236;BME280;10775;42.678;26.324;2023-03-25T04:14:24;98275.41;;;8.83;100.00
21236;BME280;10775;42.678;26.324;2023-03-25T04:16:50;98270.97;;;8.88;100.00
21236;BME280;10775;42.678;26.324;2023-03-25T04:19:18;98273.53;;;8.91;100.00
21236;BME280;10775;42.678;26.324;2023-03-25T04:21:44;98278.72;;;8.91;100.00
21236;BME280;10775;42.678;26.324;2023-03-25T04:24:12;98269.00;;;8.99;100.00
21236;BME280;10775;42.678;26.324;2023-03-25T04:26:41;98268.91;;;9.04;100.00
21236;BME280;10775;42.678;26.324;2023-03-25T04:29:07;98269.69;;;9.07;100.00
21236;BME280;10775;42.678;26.324;2023-03-25T04:31:34;98269.69;;;9.07;100.00
21236;BME280;10775;42.678;26.324;2023-03-25T04:34:00;98269.69;;;9.07;100.00
21236;BME280;10775;42.678;26.324;2023-03-25T04:36:27;98270.59;;;9.08;100.00
21236;BME280;10775;42.678;26.324;2023-03-25T04:39:02;98267.91;;;9.11;100.00
21236;BME280;10775;42.678;26.324;2023-03-25T04:41:28;98266.28;;;9.05;100.00
21236;BME280;10775;42.678;26.324;2023-03-25T04:43:53;98270.53;;;9.09;100.00
21236;BME280;10775;42.678;26.324;2023-03-25T04:46:19;98273.16;;;9.09;100.00
21236;BME280;10775;42.678;26.324;2023-03-25T04:48:44;98268.91;;;9.05;100.00
21236;BME280;10775;42.678;26.324;2023-03-25T04:51:12;98276.75;;;9.04;100.00
21236;BME280;10775;42.678;26.324;2023-03-25T04:53:38;98277.50;;;9.09;100.00
21236;BME280;10775;42.678;26.324;2023-03-25T04:56:05;98276.50;;;9.14;100.00
21236;BME280;10775;42.678;26.324;2023-03-25T04:58:31;98274.13;;;9.05;100.00
21236;BME280;10775;42.678;26.324;2023-03-25T05:00:57;98268.81;;;9.08;100.00
21236;BME280;10775;42.678;26.324;2023-03-25T05:03:30;98274.81;;;9.13;100.00
21236;BME280;10775;42.678;26.324;2023-03-25T05:05:56;98283.41;;;9.17;100.00
21236;BME280;10775;42.678;26.324;2023-03-25T05:08:21;98285.09;;;9.20;100.00
21236;BME280;10775;42.678;26.324;2023-03-25T05:10:47;98273.81;;;9.19;100.00
21236;BME280;10775;42.678;26.324;2023-03-25T05:13:14;98279.81;;;9.23;100.00
21236;BME280;10775;42.678;26.324;2023-03-25T05:15:40;98286.69;;;9.28;100.00
21236;BME280;10775;42.678;26.324;2023-03-25T05:18:11;98284.84;;;9.32;100.00
21236;BME280;10775;42.678;26.324;2023-03-25T05:20:41;98277.69;;;9.42;100.00
21236;BME280;10775;42.678;26.324;2023-03-25T05:23:09;98281.00;;;9.48;100.00
21236;BME280;10775;42.678;26.324;2023-03-25T05:25:39;98282.81;;;9.46;100.00
21236;BME280;10775;42.678;26.324;2023-03-25T05:28:06;98275.00;;;9.45;100.00
21236;BME280;10775;42.678;26.324;2023-03-25T05:30:36;98281.69;;;9.58;100.00
21236;BME280;10775;42.678;26.324;2023-03-25T05:33:09;98285.69;;;9.73;100.00
21236;BME280;10775;42.678;26.324;2023-03-25T05:35:36;98283.75;;;9.81;100.00
21236;BME280;10775;42.678;26.324;2023-03-25T05:38:06;98289.81;;;9.83;100.00
21236;BME280;10775;42.678;26.324;2023-03-25T05:40:38;98287.13;;;9.86;100.00
21236;BME280;10775;42.678;26.324;2023-03-25T05:43:04;98288.03;;;9.85;100.00
21236;BME280;10775;42.678;26.324;2023-03-25T05:45:31;98294.09;;;9.86;100.00
21236;BME280;10775;42.678;26.324;2023-03-25T05:47:56;98293.09;;;9.91;100.00
21236;BME280;10775;42.678;26.324;2023-03-25T05:50:23;98298.16;;;9.99;100.00
21236;BME280;10775;42.678;26.324;2023-03-25T05:52:49;98293.72;;;10.02;100.00
21236;BME280;10775;42.678;26.324;2023-03-25T05:55:18;98292.00;;;10.01;100.00
21236;BME280;10775;42.678;26.324;2023-03-25T05:57:43;98283.28;;;10.02;100.00
21236;BME280;10775;42.678;26.324;2023-03-25T06:00:10;98290.97;;;10.07;100.00
21236;BME280;10775;42.678;26.324;2023-03-25T06:02:37;98292.75;;;10.07;100.00
21236;BME280;10775;42.678;26.324;2023-03-25T06:05:05;98288.19;;;10.15;100.00
21236;BME280;10775;42.678;26.324;2023-03-25T06:07:30;98282.84;;;10.19;100.00
21236;BME280;10775;42.678;26.324;2023-03-25T06:09:56;98283.59;;;10.24;100.00
21236;BME280;10775;42.678;26.324;2023-03-25T06:12:23;98283.50;;;10.29;100.00
21236;BME280;10775;42.678;26.324;2023-03-25T06:14:52;98279.13;;;10.31;100.00
21236;BME280;10775;42.678;26.324;2023-03-25T06:17:20;98279.06;;;10.33;100.00
21236;BME280;10775;42.678;26.324;2023-03-25T06:19:52;98278.28;;;10.29;100.00
21236;BME280;10775;42.678;26.324;2023-03-25T06:22:18;98277.50;;;10.26;100.00
21236;BME280;10775;42.678;26.324;2023-03-25T06:24:46;98273.63;;;10.40;100.00
21236;BME280;10775;42.678;26.324;2023-03-25T06:27:17;98277.69;;;10.54;100.00
21236;BME280;10775;42.678;26.324;2023-03-25T06:29:43;98271.44;;;10.58;100.00
21236;BME280;10775;42.678;26.324;2023-03-25T06:32:11;98266.81;;;10.69;100.00
21236;BME280;10775;42.678;26.324;2023-03-25T06:34:37;98270.91;;;10.79;100.00
21236;BME280;10775;42.678;26.324;2023-03-25T06:37:04;98273.22;;;10.90;100.00
21236;BME280;10775;42.678;26.324;2023-03-25T06:39:30;98272.16;;;10.97;100.00
21236;BME280;10775;42.678;26.324;2023-03-25T06:41:59;98270.38;;;10.98;100.00
21236;BME280;10775;42.678;26.324;2023-03-25T06:44:26;98274.06;;;10.91;100.00
21236;BME280;10775;42.678;26.324;2023-03-25T06:46:51;98274.78;;;10.96;100.00
21236;BME280;10775;42.678;26.324;2023-03-25T06:49:17;98279.13;;;10.97;98.27
21236;BME280;10775;42.678;26.324;2023-03-25T06:51:42;98267.50;;;11.07;95.79
21236;BME280;10775;42.678;26.324;2023-03-25T06:54:08;98274.41;;;11.09;97.27
21236;BME280;10775;42.678;26.324;2023-03-25T06:56:33;98277.31;;;11.30;98.15
21236;BME280;10775;42.678;26.324;2023-03-25T06:58:59;98282.94;;;11.46;97.34
21236;BME280;10775;42.678;26.324;2023-03-25T07:01:25;98285.50;;;12.32;99.39
21236;BME280;10775;42.678;26.324;2023-03-25T07:03:50;98279.59;;;14.79;87.24
21236;BME280;10775;42.678;26.324;2023-03-25T07:06:18;98272.81;;;16.27;78.88
21236;BME280;10775;42.678;26.324;2023-03-25T07:08:44;98273.03;;;17.58;70.46
21236;BME280;10775;42.678;26.324;2023-03-25T07:11:11;98274.63;;;18.10;66.86
21236;BME280;10775;42.678;26.324;2023-03-25T07:13:37;98268.94;;;18.62;65.67
21236;BME280;10775;42.678;26.324;2023-03-25T07:16:03;98265.16;;;18.66;62.80
21236;BME280;10775;42.678;26.324;2023-03-25T07:18:28;98276.78;;;19.08;62.14
21236;BME280;10775;42.678;26.324;2023-03-25T07:20:54;98268.25;;;18.89;60.93
21236;BME280;10775;42.678;26.324;2023-03-25T07:23:19;98271.56;;;19.07;62.05
21236;BME280;10775;42.678;26.324;2023-03-25T07:25:45;98267.69;;;19.27;60.01
21236;BME280;10775;42.678;26.324;2023-03-25T07:28:10;98279.25;;;19.54;60.34
21236;BME280;10775;42.678;26.324;2023-03-25T07:30:36;98272.50;;;19.92;57.75
21236;BME280;10775;42.678;26.324;2023-03-25T07:33:01;98276.31;;;20.15;56.61
21236;BME280;10775;42.678;26.324;2023-03-25T07:35:27;98271.03;;;20.01;55.90
21236;BME280;10775;42.678;26.324;2023-03-25T07:37:52;98269.97;;;20.03;57.69
21236;BME280;10775;42.678;26.324;2023-03-25T07:40:18;98264.31;;;20.22;56.24
21236;BME280;10775;42.678;26.324;2023-03-25T07:42:43;98266.97;;;20.22;56.55
21236;BME280;10775;42.678;26.324;2023-03-25T07:45:10;98258.06;;;19.96;57.74
21236;BME280;10775;42.678;26.324;2023-03-25T07:47:35;98260.72;;;20.23;56.19
21236;BME280;10775;42.678;26.324;2023-03-25T07:50:01;98258.22;;;20.07;56.63
21236;BME280;10775;42.678;26.324;2023-03-25T07:52:27;98261.78;;;20.20;56.83
21236;BME280;10775;42.678;26.324;2023-03-25T07:54:53;98261.59;;;20.36;55.73
21236;BME280;10775;42.678;26.324;2023-03-25T07:57:18;98255.19;;;20.26;55.25
21236;BME280;10775;42.678;26.324;2023-03-25T07:59:43;98261.53;;;20.11;56.78
21236;BME280;10775;42.678;26.324;2023-03-25T08:02:12;98252.88;;;20.34;56.26
21236;BME280;10775;42.678;26.324;2023-03-25T08:04:38;98253.56;;;20.51;55.75
21236;BME280;10775;42.678;26.324;2023-03-25T08:07:03;98252.47;;;20.80;54.83
21236;BME280;10775;42.678;26.324;2023-03-25T08:09:29;98247.81;;;20.71;53.89
21236;BME280;10775;42.678;26.324;2023-03-25T08:11:55;98252.06;;;20.87;54.74
21236;BME280;10775;42.678;26.324;2023-03-25T08:14:21;98242.38;;;20.85;53.80
21236;BME280;10775;42.678;26.324;2023-03-25T08:16:46;98244.19;;;20.45;54.92
21236;BME280;10775;42.678;26.324;2023-03-25T08:19:12;98246.50;;;20.64;54.67
21236;BME280;10775;42.678;26.324;2023-03-25T08:21:37;98237.91;;;20.73;55.32
21236;BME280;10775;42.678;26.324;2023-03-25T08:24:03;98247.38;;;20.77;54.77
21236;BME280;10775;42.678;26.324;2023-03-25T08:26:30;98239.63;;;20.74;54.35
21236;BME280;10775;42.678;26.324;2023-03-25T08:28:56;98240.69;;;20.84;53.92
21236;BME280;10775;42.678;26.324;2023-03-25T08:31:25;98243.91;;;20.10;54.50
21236;BME280;10775;42.678;26.324;2023-03-25T08:33:58;98256.28;;;20.36;56.08
21236;BME280;10775;42.678;26.324;2023-03-25T08:36:23;98238.16;;;20.43;54.71
21236;BME280;10775;42.678;26.324;2023-03-25T08:38:50;98236.16;;;20.19;55.79
21236;BME280;10775;42.678;26.324;2023-03-25T08:41:15;98235.78;;;20.26;56.43
21236;BME280;10775;42.678;26.324;2023-03-25T08:43:41;98239.50;;;20.23;55.08
21236;BME280;10775;42.678;26.324;2023-03-25T08:46:07;98236.84;;;19.96;56.71
21236;BME280;10775;42.678;26.324;2023-03-25T08:48:33;98231.44;;;20.37;56.80
21236;BME280;10775;42.678;26.324;2023-03-25T08:50:58;98232.06;;;20.28;56.51
21236;BME280;10775;42.678;26.324;2023-03-25T08:53:25;98229.25;;;20.17;56.37
21236;BME280;10775;42.678;26.324;2023-03-25T08:55:52;98228.66;;;20.26;57.90
21236;BME280;10775;42.678;26.324;2023-03-25T08:58:18;98221.09;;;20.60;57.05
21236;BME280;10775;42.678;26.324;2023-03-25T09:00:44;98205.09;;;20.74;55.71
21236;BME280;10775;42.678;26.324;2023-03-25T09:03:10;98218.06;;;21.04;54.67
21236;BME280;10775;42.678;26.324;2023-03-25T09:05:37;98219.44;;;20.97;54.99
21236;BME280;10775;42.678;26.324;2023-03-25T09:08:05;98209.75;;;20.83;55.81
21236;BME280;10775;42.678;26.324;2023-03-25T09:10:31;98203.59;;;20.83;55.05
21236;BME280;10775;42.678;26.324;2023-03-25T09:12:57;98206.03;;;20.86;54.88
21236;BME280;10775;42.678;26.324;2023-03-25T09:15:22;98201.06;;;20.94;54.21
21236;BME280;10775;42.678;26.324;2023-03-25T09:17:48;98203.47;;;21.23;53.49
21236;BME280;10775;42.678;26.324;2023-03-25T09:20:13;98199.00;;;21.23;52.72
21236;BME280;10775;42.678;26.324;2023-03-25T09:22:39;98199.03;;;20.98;52.93
21236;BME280;10775;42.678;26.324;2023-03-25T09:25:06;98194.69;;;20.84;53.48
21236;BME280;10775;42.678;26.324;2023-03-25T09:27:32;98200.84;;;20.97;53.81
21236;BME280;10775;42.678;26.324;2023-03-25T09:29:58;98190.31;;;20.83;54.09
21236;BME280;10775;42.678;26.324;2023-03-25T09:32:23;98188.09;;;20.90;54.69
21236;BME280;10775;42.678;26.324;2023-03-25T09:34:50;98182.25;;;20.59;55.28
21236;BME280;10775;42.678;26.324;2023-03-25T09:37:15;98184.25;;;20.55;55.94
21236;BME280;10775;42.678;26.324;2023-03-25T09:39:41;98181.50;;;20.82;55.64
21236;BME280;10775;42.678;26.324;2023-03-25T09:47:29;98173.09;;;21.14;54.50
21236;BME280;10775;42.678;26.324;2023-03-25T09:50:00;98176.13;;;20.31;56.30
21236;BME280;10775;42.678;26.324;2023-03-25T09:52:46;98160.16;;;20.71;55.71
21236;BME280;10775;42.678;26.324;2023-03-25T09:55:19;98160.47;;;20.92;55.51
21236;BME280;10775;42.678;26.324;2023-03-25T09:57:51;98159.63;;;20.92;54.28
21236;BME280;10775;42.678;26.324;2023-03-25T10:00:22;98155.03;;;20.94;55.61
21236;BME280;10775;42.678;26.324;2023-03-25T10:02:55;98142.09;;;20.76;55.82
21236;BME280;10775;42.678;26.324;2023-03-25T10:05:48;98144.59;;;20.52;56.29
21236;BME280;10775;42.678;26.324;2023-03-25T10:08:22;98134.41;;;20.33;57.91
21236;BME280;10775;42.678;26.324;2023-03-25T10:13:42;98129.22;;;20.57;56.44
21236;BME280;10775;42.678;26.324;2023-03-25T10:19:27;98117.69;;;20.06;57.01
21236;BME280;10775;42.678;26.324;2023-03-25T10:22:08;98117.41;;;20.23;57.36
21236;BME280;10775;42.678;26.324;2023-03-25T10:24:47;98111.47;;;20.71;56.81
21236;BME280;10775;42.678;26.324;2023-03-25T10:35:30;98091.97;;;21.09;55.45
21236;BME280;10775;42.678;26.324;2023-03-25T10:38:22;98087.69;;;20.44;56.06
21236;BME280;10775;42.678;26.324;2023-03-25T10:41:10;98084.91;;;20.45;57.05
21236;BME280;10775;42.678;26.324;2023-03-25T10:43:41;98082.28;;;20.71;56.87
21236;BME280;10775;42.678;26.324;2023-03-25T10:48:41;98081.19;;;20.99;55.42
21236;BME280;10775;42.678;26.324;2023-03-25T10:51:12;98071.78;;;20.56;56.05
21236;BME280;10775;42.678;26.324;2023-03-25T10:53:39;98072.31;;;20.36;56.42
21236;BME280;10775;42.678;26.324;2023-03-25T10:56:15;98068.06;;;20.46;55.93
21236;BME280;10775;42.678;26.324;2023-03-25T10:58:45;98060.28;;;20.81;57.16
21236;BME280;10775;42.678;26.324;2023-03-25T11:01:15;98059.38;;;20.94;56.09
21236;BME280;10775;42.678;26.324;2023-03-25T11:03:42;98062.50;;;21.24;55.28
21236;BME280;10775;42.678;26.324;2023-03-25T11:06:24;98046.66;;;21.47;54.56
21236;BME280;10775;42.678;26.324;2023-03-25T11:09:10;98047.63;;;21.22;54.32
21236;BME280;10775;42.678;26.324;2023-03-25T11:11:38;98047.41;;;21.49;55.64
21236;BME280;10775;42.678;26.324;2023-03-25T11:14:03;98038.28;;;21.64;53.53
21236;BME280;10775;42.678;26.324;2023-03-25T11:16:33;98028.88;;;21.71;54.52
21236;BME280;10775;42.678;26.324;2023-03-25T11:19:02;98021.41;;;21.88;52.70
21236;BME280;10775;42.678;26.324;2023-03-25T11:21:34;98017.91;;;21.76;52.69
21236;BME280;10775;42.678;26.324;2023-03-25T11:24:01;98013.41;;;21.65;52.76
21236;BME280;10775;42.678;26.324;2023-03-25T11:26:28;98007.31;;;21.04;54.01
21236;BME280;10775;42.678;26.324;2023-03-25T11:31:35;97997.88;;;21.59;52.77
21236;BME280;10775;42.678;26.324;2023-03-25T11:39:26;97989.59;;;21.75;51.88
21236;BME280;10775;42.678;26.324;2023-03-25T11:41:53;97988.69;;;21.99;50.94
21236;BME280;10775;42.678;26.324;2023-03-25T11:44:25;97982.03;;;22.04;50.83
21236;BME280;10775;42.678;26.324;2023-03-25T11:46:56;97983.06;;;21.79;51.79
21236;BME280;10775;42.678;26.324;2023-03-25T11:49:23;97980.81;;;21.97;51.61
21236;BME280;10775;42.678;26.324;2023-03-25T11:51:56;97974.50;;;21.87;50.89
21236;BME280;10775;42.678;26.324;2023-03-25T11:54:24;97973.41;;;21.89;51.84
21236;BME280;10775;42.678;26.324;2023-03-25T11:56:51;97967.97;;;21.80;51.29
21236;BME280;10775;42.678;26.324;2023-03-25T11:59:25;97969.19;;;21.87;51.91
21236;BME280;10775;42.678;26.324;2023-03-25T12:02:00;97961.91;;;21.78;51.52
21236;BME280;10775;42.678;26.324;2023-03-25T12:04:27;97953.19;;;21.64;51.87
21236;BME280;10775;42.678;26.324;2023-03-25T12:07:03;97955.59;;;21.67;52.07
21236;BME280;10775;42.678;26.324;2023-03-25T12:09:30;97947.84;;;21.53;53.17
21236;BME280;10775;42.678;26.324;2023-03-25T12:20:27;97934.84;;;21.84;50.75
21236;BME280;10775;42.678;26.324;2023-03-25T12:28:31;97925.44;;;21.44;51.52
21236;BME280;10775;42.678;26.324;2023-03-25T12:39:25;97917.44;;;21.91;50.27
21236;BME280;10775;42.678;26.324;2023-03-25T12:42:15;97921.19;;;22.00;51.60
21236;BME280;10775;42.678;26.324;2023-03-25T13:09:29;97888.88;;;21.93;50.55
21236;BME280;10775;42.678;26.324;2023-03-25T13:12:28;97883.91;;;22.11;50.83
21236;BME280;10775;42.678;26.324;2023-03-25T13:17:27;97885.41;;;21.35;51.94
21236;BME280;10775;42.678;26.324;2023-03-25T13:19:59;97877.38;;;21.70;52.11
21236;BME280;10775;42.678;26.324;2023-03-25T13:22:33;97884.41;;;21.71;51.39
21236;BME280;10775;42.678;26.324;2023-03-25T13:25:03;97877.16;;;21.73;51.42
21236;BME280;10775;42.678;26.324;2023-03-25T13:27:32;97873.91;;;21.81;52.33
21236;BME280;10775;42.678;26.324;2023-03-25T13:29:59;97868.09;;;21.87;51.46
21236;BME280;10775;42.678;26.324;2023-03-25T13:32:31;97864.72;;;21.96;51.89
21236;BME280;10775;42.678;26.324;2023-03-25T13:35:05;97869.66;;;21.67;52.49
21236;BME280;10775;42.678;26.324;2023-03-25T13:38:00;97868.72;;;21.33;53.00
21236;BME280;10775;42.678;26.324;2023-03-25T13:40:34;97861.28;;;21.14;53.03
21236;BME280;10775;42.678;26.324;2023-03-25T13:45:46;97857.56;;;21.74;52.93
21236;BME280;10775;42.678;26.324;2023-03-25T13:48:18;97865.78;;;22.05;51.38
21236;BME280;10775;42.678;26.324;2023-03-25T13:50:48;97859.50;;;21.83;51.89
21236;BME280;10775;42.678;26.324;2023-03-25T13:53:26;97851.03;;;22.01;51.41
21236;BME280;10775;42.678;26.324;2023-03-25T14:14:37;97832.66;;;22.09;51.64
21236;BME280;10775;42.678;26.324;2023-03-25T14:17:05;97827.19;;;22.10;52.36
21236;BME280;10775;42.678;26.324;2023-03-25T14:19:37;97828.66;;;22.14;51.61
21236;BME280;10775;42.678;26.324;2023-03-25T14:22:25;97818.84;;;22.26;51.64
21236;BME280;10775;42.678;26.324;2023-03-25T14:24:51;97826.81;;;22.15;52.17
21236;BME280;10775;42.678;26.324;2023-03-25T14:27:24;97824.03;;;22.28;52.52
21236;BME280;10775;42.678;26.324;2023-03-25T14:30:00;97829.47;;;22.38;52.34
21236;BME280;10775;42.678;26.324;2023-03-25T14:43:02;97808.84;;;22.51;51.51
21236;BME280;10775;42.678;26.324;2023-03-25T14:48:05;97812.25;;;23.27;49.23
21236;BME280;10775;42.678;26.324;2023-03-25T14:50:35;97806.03;;;23.17;49.52
21236;BME280;10775;42.678;26.324;2023-03-25T14:53:03;97815.56;;;22.66;50.66
21236;BME280;10775;42.678;26.324;2023-03-25T14:55:40;97810.28;;;22.11;51.39
21236;BME280;10775;42.678;26.324;2023-03-25T14:58:18;97819.00;;;21.91;52.26
21236;BME280;10775;42.678;26.324;2023-03-25T15:00:59;97806.19;;;21.85;52.91
21236;BME280;10775;42.678;26.324;2023-03-25T15:03:34;97819.38;;;21.86;52.67
21236;BME280;10775;42.678;26.324;2023-03-25T15:06:01;97815.00;;;21.74;53.76
21236;BME280;10775;42.678;26.324;2023-03-25T15:08:30;97819.72;;;21.48;54.39
21236;BME280;10775;42.678;26.324;2023-03-25T15:11:33;97824.41;;;21.44;54.91
21236;BME280;10775;42.678;26.324;2023-03-25T15:14:02;97824.41;;;21.44;54.76
21236;BME280;10775;42.678;26.324;2023-03-25T15:16:37;97810.63;;;21.39;54.92
21236;BME280;10775;42.678;26.324;2023-03-25T15:19:09;97812.88;;;21.21;55.01
21236;BME280;10775;42.678;26.324;2023-03-25T15:24:27;97811.13;;;20.87;56.61
21236;BME280;10775;42.678;26.324;2023-03-25T15:26:54;97805.50;;;20.78;56.33
21236;BME280;10775;42.678;26.324;2023-03-25T15:54:27;97786.31;;;20.27;42.20
21236;BME280;10775;42.678;26.324;2023-03-25T15:57:13;97799.09;;;20.22;42.34
21236;BME280;10775;42.678;26.324;2023-03-25T15:59:48;97789.03;;;20.14;42.72